Time;durP1;ratioP1;P1;durP2;ratioP2;P2;SDS_P1;SDS_P2;PMS_P1;PMS_P2;Temp;Humidity;BMP_temperature;BMP_pressure;BME280_temperature;BME280_humidity;BME280_pressure;Samples;Min_cycle;Max_cycle;Signal;HPM_P1;HPM_P2
2021/06/04 00:01:36;;;;;;;0.60;0.40;;;17.60;99.80;;;;;;5053531;28;20481;-86
2021/06/04 00:04:04;;;;;;;0.60;0.40;;;17.50;99.80;;;;;;5050860;28;20471;-86
2021/06/04 00:06:32;;;;;;;0.60;0.50;;;17.60;99.80;;;;;;5038578;28;20478;-86
2021/06/04 00:09:00;;;;;;;0.60;0.40;;;17.60;99.80;;;;;;5033207;28;20481;-86
2021/06/04 00:11:30;;;;;;;0.60;0.40;;;17.60;99.80;;;;;;5039259;28;20464;-86
2021/06/04 00:14:02;;;;;;;0.60;0.40;;;17.50;99.80;;;;;;5048468;28;20458;-86
2021/06/04 00:16:32;;;;;;;0.60;0.40;;;17.50;99.80;;;;;;5054025;28;20482;-86
2021/06/04 00:19:06;;;;;;;0.60;0.40;;;17.50;99.80;;;;;;5054370;28;20549;-86
2021/06/04 00:21:36;;;;;;;0.60;0.40;;;17.50;99.80;;;;;;5053509;28;20470;-86
2021/06/04 00:24:09;;;;;;;0.60;0.40;;;17.50;99.80;;;;;;5057162;28;20534;-86
2021/06/04 00:26:38;;;;;;;0.60;0.43;;;17.50;99.80;;;;;;5058034;28;20525;-86
2021/06/04 00:29:06;;;;;;;0.60;0.40;;;17.50;99.80;;;;;;5060864;28;20480;-86
2021/06/04 00:31:33;;;;;;;0.60;0.40;;;17.50;99.80;;;;;;5049264;28;20475;-86
2021/06/04 00:34:05;;;;;;;0.60;0.50;;;17.50;99.80;;;;;;5041571;28;20498;-86
2021/06/04 00:36:32;;;;;;;0.60;0.40;;;17.40;99.80;;;;;;5066592;28;20954;-86
2021/06/04 00:39:01;;;;;;;0.60;0.40;;;17.40;99.80;;;;;;5048607;28;21009;-86
2021/06/04 00:41:32;;;;;;;0.60;0.40;;;17.40;99.80;;;;;;5055659;28;20473;-86
2021/06/04 00:44:00;;;;;;;0.60;0.40;;;17.40;99.80;;;;;;5052410;28;20463;-86
2021/06/04 00:46:28;;;;;;;0.60;0.40;;;17.30;99.80;;;;;;5042501;28;21204;-86
2021/06/04 00:48:57;;;;;;;0.60;0.40;;;17.30;99.80;;;;;;5039293;28;20502;-86
2021/06/04 00:51:31;;;;;;;0.60;0.40;;;17.20;99.80;;;;;;5054243;28;20608;-86
2021/06/04 00:54:01;;;;;;;0.60;0.50;;;17.20;99.80;;;;;;5054959;28;20478;-86
2021/06/04 00:56:29;;;;;;;0.60;0.40;;;17.20;99.80;;;;;;5043575;28;20458;-86
2021/06/04 00:58:57;;;;;;;0.60;0.40;;;17.20;99.80;;;;;;5042547;28;21001;-86
2021/06/04 01:01:29;;;;;;;0.60;0.40;;;17.20;99.80;;;;;;5039982;28;20513;-86
2021/06/04 01:03:59;;;;;;;0.60;0.40;;;17.20;99.80;;;;;;5051127;28;20904;-86
2021/06/04 01:06:35;;;;;;;0.60;0.40;;;17.20;99.80;;;;;;5054427;28;20502;-86
2021/06/04 01:09:28;;;;;;;0.60;0.50;;;17.10;99.80;;;;;;5062896;28;21043;-86
2021/06/04 01:12:11;;;;;;;0.60;0.40;;;17.20;99.80;;;;;;5009274;28;20466;-86
2021/06/04 01:14:48;;;;;;;0.60;0.40;;;17.20;99.80;;;;;;5063795;28;20472;-86
2021/06/04 01:17:27;;;;;;;0.60;0.40;;;17.10;99.80;;;;;;5029396;28;20475;-86
2021/06/04 01:19:59;;;;;;;0.60;0.50;;;17.10;99.80;;;;;;5045614;28;21219;-86
2021/06/04 01:22:42;;;;;;;0.60;0.40;;;17.20;99.80;;;;;;5056866;28;21708;-86
2021/06/04 01:25:45;;;;;;;0.60;0.40;;;17.20;99.80;;;;;;5053358;28;20481;-85
2021/06/04 01:28:19;;;;;;;0.60;0.40;;;17.20;99.80;;;;;;5042946;28;20480;-86
2021/06/04 01:30:52;;;;;;;0.60;0.40;;;17.20;99.80;;;;;;5055873;28;20810;-86
2021/06/04 01:33:27;;;;;;;0.60;0.40;;;17.20;99.80;;;;;;5056227;28;20490;-86
2021/06/04 01:35:58;;;;;;;0.60;0.40;;;17.20;99.80;;;;;;5060890;28;20906;-86
2021/06/04 01:38:30;;;;;;;0.60;0.40;;;17.20;99.80;;;;;;5052111;28;20475;-86
2021/06/04 01:41:03;;;;;;;0.60;0.50;;;17.20;99.80;;;;;;5049315;28;20498;-86
2021/06/04 01:43:35;;;;;;;0.60;0.40;;;17.20;99.80;;;;;;5056552;28;21019;-87
2021/06/04 01:46:08;;;;;;;0.60;0.40;;;17.10;99.80;;;;;;5047769;28;20995;-86
2021/06/04 01:48:42;;;;;;;0.60;0.40;;;17.10;99.80;;;;;;5053373;28;20487;-86
2021/06/04 01:51:16;;;;;;;0.60;0.40;;;17.10;99.80;;;;;;5056281;28;20466;-86
2021/06/04 01:53:48;;;;;;;0.60;0.50;;;17.10;99.80;;;;;;5056293;28;20503;-86
2021/06/04 01:56:25;;;;;;;0.60;0.40;;;17.10;99.80;;;;;;5050402;28;20474;-86
2021/06/04 01:58:57;;;;;;;0.60;0.40;;;17.10;99.80;;;;;;5044958;28;20474;-86
2021/06/04 02:01:31;;;;;;;0.60;0.40;;;17.10;99.80;;;;;;5048831;28;20481;-86
2021/06/04 02:03:59;;;;;;;0.60;0.40;;;17.10;99.80;;;;;;5043672;28;20443;-86
2021/06/04 02:06:27;;;;;;;0.60;0.40;;;17.10;99.80;;;;;;5044927;28;20470;-86
2021/06/04 02:08:58;;;;;;;0.60;0.40;;;17.00;99.80;;;;;;5048617;28;20467;-86
2021/06/04 02:11:29;;;;;;;0.60;0.40;;;17.00;99.80;;;;;;5051105;28;20884;-86
2021/06/04 02:13:59;;;;;;;0.60;0.40;;;17.00;99.80;;;;;;5046549;28;20474;-87
2021/06/04 02:16:41;;;;;;;0.60;0.50;;;17.00;99.80;;;;;;5048958;28;20833;-87
2021/06/04 02:19:21;;;;;;;0.60;0.40;;;17.00;99.80;;;;;;5009170;28;21328;-86
2021/06/04 02:21:57;;;;;;;0.60;0.40;;;17.00;99.80;;;;;;5042601;28;20478;-86
2021/06/04 02:24:32;;;;;;;0.60;0.40;;;17.00;99.80;;;;;;5053342;28;20466;-86
2021/06/04 02:27:05;;;;;;;0.60;0.40;;;16.90;99.80;;;;;;5050069;28;20477;-85
2021/06/04 02:29:40;;;;;;;0.60;0.43;;;16.90;99.80;;;;;;5054137;28;20998;-85
2021/06/04 02:32:12;;;;;;;0.60;0.43;;;16.90;99.80;;;;;;5036195;28;20474;-86
2021/06/04 02:34:44;;;;;;;0.60;0.50;;;16.90;99.80;;;;;;5045792;28;20462;-86
2021/06/04 02:37:14;;;;;;;0.60;0.50;;;16.90;99.80;;;;;;5047788;28;20471;-85
2021/06/04 02:39:46;;;;;;;0.70;0.70;;;16.90;99.80;;;;;;5044400;28;20497;-85
2021/06/04 02:42:22;;;;;;;0.60;0.40;;;16.80;99.80;;;;;;5045679;28;20456;-85
2021/06/04 02:44:52;;;;;;;0.60;0.40;;;16.70;99.80;;;;;;5056419;28;20471;-85
2021/06/04 02:47:24;;;;;;;0.60;0.50;;;16.70;99.80;;;;;;5053268;28;20979;-85
2021/06/04 02:49:52;;;;;;;0.60;0.50;;;16.70;99.80;;;;;;5051106;28;20467;-85
2021/06/04 02:52:30;;;;;;;0.60;0.50;;;16.70;99.80;;;;;;5059730;28;20470;-85
2021/06/04 02:54:59;;;;;;;0.60;0.50;;;16.70;99.80;;;;;;5061044;28;20585;-86
2021/06/04 02:57:32;;;;;;;0.60;0.50;;;16.70;99.80;;;;;;5068341;28;20846;-85
2021/06/04 03:00:00;;;;;;;0.60;0.40;;;16.70;99.80;;;;;;5058477;28;20473;-86
2021/06/04 03:02:31;;;;;;;0.60;0.40;;;16.60;99.80;;;;;;5057537;28;20468;-86
2021/06/04 03:05:03;;;;;;;0.60;0.40;;;16.60;99.80;;;;;;5054261;28;20473;-87
2021/06/04 03:07:33;;;;;;;0.60;0.40;;;16.60;99.80;;;;;;5051843;28;20481;-86
2021/06/04 03:10:07;;;;;;;0.60;0.40;;;16.50;99.80;;;;;;5061481;28;20478;-86
2021/06/04 03:12:40;;;;;;;0.60;0.50;;;16.50;99.80;;;;;;5052453;28;20462;-87
2021/06/04 03:15:17;;;;;;;0.60;0.40;;;16.40;99.80;;;;;;5049651;28;22505;-86
2021/06/04 03:17:45;;;;;;;0.60;0.40;;;16.40;99.80;;;;;;5061366;28;20472;-86
2021/06/04 03:20:19;;;;;;;0.60;0.40;;;16.40;99.80;;;;;;5052664;28;20479;-86
2021/06/04 03:22:47;;;;;;;0.60;0.40;;;16.40;99.80;;;;;;5056513;28;20476;-87
2021/06/04 03:25:19;;;;;;;0.60;0.40;;;16.40;99.80;;;;;;5059565;28;20976;-87
2021/06/04 03:27:49;;;;;;;0.60;0.40;;;16.40;99.80;;;;;;5027313;28;20575;-87
2021/06/04 03:30:19;;;;;;;0.60;0.40;;;16.30;99.80;;;;;;5054992;28;20496;-87
2021/06/04 03:32:50;;;;;;;2.80;2.57;;;16.30;99.80;;;;;;5050559;28;20482;-87
2021/06/04 03:35:19;;;;;;;0.60;0.47;;;16.20;99.80;;;;;;5058542;28;20516;-86
2021/06/04 03:37:47;;;;;;;0.60;0.40;;;16.30;99.80;;;;;;5055475;28;20466;-86
2021/06/04 03:40:19;;;;;;;0.60;0.40;;;16.30;99.80;;;;;;5043061;28;21062;-86
2021/06/04 03:42:46;;;;;;;0.60;0.40;;;16.30;99.80;;;;;;5028724;28;20529;-86
2021/06/04 03:45:19;;;;;;;0.60;0.40;;;16.30;99.80;;;;;;5041953;28;20482;-86
2021/06/04 03:47:46;;;;;;;0.60;0.40;;;16.20;99.80;;;;;;5056519;28;20976;-86
2021/06/04 03:50:15;;;;;;;0.63;0.43;;;16.20;99.80;;;;;;5044692;28;20486;-86
2021/06/04 03:52:43;;;;;;;0.60;0.40;;;16.20;99.80;;;;;;5056941;28;20986;-86
2021/06/04 03:55:12;;;;;;;0.60;0.47;;;16.20;99.80;;;;;;5061988;28;21295;-86
2021/06/04 03:57:40;;;;;;;0.60;0.40;;;16.20;99.80;;;;;;5054064;28;20477;-87
2021/06/04 04:00:12;;;;;;;0.60;0.40;;;16.20;99.80;;;;;;5037312;28;20477;-87
2021/06/04 04:02:41;;;;;;;0.60;0.40;;;16.20;99.80;;;;;;5035531;28;20486;-86
2021/06/04 04:05:10;;;;;;;0.60;0.40;;;16.20;99.80;;;;;;5057459;28;20470;-86
2021/06/04 04:07:38;;;;;;;0.60;0.40;;;16.20;99.80;;;;;;5044825;28;20470;-88
2021/06/04 04:10:07;;;;;;;0.60;0.40;;;16.30;99.80;;;;;;5054860;28;20475;-87
2021/06/04 04:12:35;;;;;;;0.60;0.40;;;16.30;99.80;;;;;;5053186;28;20465;-88
2021/06/04 04:15:03;;;;;;;0.60;0.50;;;16.30;99.80;;;;;;5050665;28;20475;-88
2021/06/04 04:17:31;;;;;;;0.60;0.40;;;16.30;99.80;;;;;;5040792;28;20554;-88
2021/06/04 04:19:59;;;;;;;0.60;0.50;;;16.40;99.80;;;;;;5051048;28;20521;-88
2021/06/04 04:22:28;;;;;;;0.60;0.40;;;16.40;99.80;;;;;;5062376;28;20557;-88
2021/06/04 04:24:55;;;;;;;0.60;0.40;;;16.40;99.80;;;;;;5054534;28;20519;-88
2021/06/04 04:27:23;;;;;;;0.60;0.40;;;16.40;99.80;;;;;;5058675;28;20479;-88
2021/06/04 04:29:50;;;;;;;0.60;0.50;;;16.40;99.80;;;;;;5051872;28;20857;-88
2021/06/04 04:32:18;;;;;;;0.60;0.40;;;;;;;;;;5047381;28;20467;-88
2021/06/04 04:34:47;;;;;;;0.60;0.40;;;16.40;99.80;;;;;;5058466;28;20480;-88
2021/06/04 04:37:16;;;;;;;0.60;0.40;;;16.40;99.80;;;;;;5062656;28;20464;-88
2021/06/04 04:39:46;;;;;;;0.60;0.40;;;16.40;99.80;;;;;;5051642;28;20493;-88
2021/06/04 04:42:18;;;;;;;0.60;0.40;;;16.40;99.80;;;;;;5047663;28;20467;-87
2021/06/04 04:44:50;;;;;;;0.60;0.40;;;16.50;99.80;;;;;;5052479;28;20542;-87
2021/06/04 04:47:22;;;;;;;0.60;0.50;;;16.50;99.80;;;;;;5044638;28;20474;-88
2021/06/04 04:49:49;;;;;;;0.60;0.50;;;16.60;99.80;;;;;;5049174;28;20493;-88
2021/06/04 04:52:20;;;;;;;0.60;0.47;;;16.60;99.80;;;;;;5049348;28;21295;-87
2021/06/04 04:54:50;;;;;;;0.60;0.40;;;16.70;99.80;;;;;;5048372;28;20485;-87
2021/06/04 04:57:18;;;;;;;0.60;0.50;;;16.80;99.80;;;;;;5030768;28;20475;-88
2021/06/04 04:59:46;;;;;;;0.60;0.50;;;16.80;99.80;;;;;;5022741;28;20472;-88
2021/06/04 05:02:14;;;;;;;0.60;0.40;;;16.80;99.80;;;;;;5021194;28;20475;-88
2021/06/04 05:04:42;;;;;;;0.60;0.50;;;16.90;99.80;;;;;;5059823;28;21013;-87
2021/06/04 05:07:09;;;;;;;0.60;0.50;;;16.90;99.80;;;;;;5063410;28;20470;-88
2021/06/04 05:09:38;;;;;;;0.60;0.40;;;17.00;99.80;;;;;;5053038;28;21093;-88
2021/06/04 05:12:07;;;;;;;0.60;0.40;;;17.00;99.80;;;;;;5048292;28;20478;-88
2021/06/04 05:14:36;;;;;;;0.60;0.40;;;17.00;99.80;;;;;;5044927;28;20507;-88
2021/06/04 05:17:05;;;;;;;0.60;0.40;;;17.00;99.80;;;;;;5056015;28;21233;-88
2021/06/04 05:19:38;;;;;;;0.60;0.40;;;17.10;99.80;;;;;;5050058;28;20499;-88
2021/06/04 05:22:06;;;;;;;0.60;0.40;;;17.20;99.80;;;;;;5045584;28;20463;-88
2021/06/04 05:24:33;;;;;;;0.60;0.40;;;17.20;99.80;;;;;;5047064;28;20479;-88
2021/06/04 05:27:03;;;;;;;0.60;0.50;;;17.20;99.80;;;;;;5049048;28;20464;-88
2021/06/04 05:29:31;;;;;;;0.60;0.40;;;17.30;99.80;;;;;;5045161;28;20473;-88
2021/06/04 05:31:59;;;;;;;0.60;0.40;;;17.30;99.80;;;;;;5053254;28;20486;-87
2021/06/04 05:34:27;;;;;;;0.60;0.40;;;17.40;99.80;;;;;;5057908;28;20497;-88
2021/06/04 05:36:54;;;;;;;0.60;0.40;;;17.40;99.80;;;;;;5040459;28;20482;-87
2021/06/04 05:39:27;;;;;;;0.60;0.40;;;17.40;99.80;;;;;;5040759;28;20550;-88
2021/06/04 05:41:59;;;;;;;0.60;0.40;;;17.40;99.80;;;;;;5039355;28;20472;-88
2021/06/04 05:44:32;;;;;;;0.60;0.40;;;17.50;99.80;;;;;;5041028;28;20482;-88
2021/06/04 05:47:01;;;;;;;0.60;0.50;;;17.50;99.80;;;;;;5038450;28;20471;-88
2021/06/04 05:49:31;;;;;;;0.60;0.40;;;17.50;99.80;;;;;;5056907;28;20553;-88
2021/06/04 05:51:59;;;;;;;0.60;0.40;;;17.60;99.80;;;;;;5060620;28;20474;-88
2021/06/04 05:54:27;;;;;;;0.60;0.40;;;17.60;99.80;;;;;;5049758;28;21338;-88
2021/06/04 05:56:55;;;;;;;0.60;0.40;;;17.70;99.80;;;;;;5055930;28;20470;-87
2021/06/04 05:59:22;;;;;;;0.60;0.40;;;17.80;99.80;;;;;;5035478;28;20485;-86
2021/06/04 06:01:51;;;;;;;0.60;0.40;;;17.90;99.80;;;;;;5054711;28;21003;-86
2021/06/04 06:04:20;;;;;;;0.60;0.40;;;18.00;99.80;;;;;;5043132;28;20459;-86
2021/06/04 06:06:47;;;;;;;0.60;0.50;;;18.10;99.80;;;;;;5038884;28;21152;-86
2021/06/04 06:09:15;;;;;;;0.60;0.40;;;18.30;99.80;;;;;;5043203;28;21045;-87
2021/06/04 06:11:43;;;;;;;0.60;0.40;;;18.50;99.80;;;;;;5048496;28;20847;-87
2021/06/04 06:14:11;;;;;;;0.60;0.40;;;18.60;99.80;;;;;;5048936;28;20471;-86
2021/06/04 06:16:39;;;;;;;0.60;0.50;;;18.60;99.80;;;;;;5057335;28;20474;-87
2021/06/04 06:19:10;;;;;;;0.60;0.40;;;18.70;99.80;;;;;;5059665;28;20510;-87
2021/06/04 06:21:38;;;;;;;0.60;0.40;;;18.80;99.80;;;;;;5056052;28;20518;-88
2021/06/04 06:24:07;;;;;;;0.60;0.40;;;18.80;99.80;;;;;;5052163;28;20463;-88
2021/06/04 06:26:35;;;;;;;0.60;0.40;;;19.00;99.80;;;;;;5029806;28;20471;-88
2021/06/04 06:29:06;;;;;;;0.60;0.40;;;19.10;99.80;;;;;;5038654;28;20470;-85
2021/06/04 06:31:36;;;;;;;0.60;0.40;;;19.20;99.80;;;;;;5051065;28;20482;-85
2021/06/04 06:34:06;;;;;;;0.60;0.40;;;19.40;99.80;;;;;;5048111;28;20478;-85
2021/06/04 06:36:37;;;;;;;0.60;0.40;;;19.50;99.80;;;;;;5045016;28;20484;-84
2021/06/04 06:39:10;;;;;;;0.60;0.40;;;19.50;99.80;;;;;;5062301;28;20459;-86
2021/06/04 06:41:40;;;;;;;0.60;0.40;;;19.50;99.80;;;;;;5052680;28;21006;-86
2021/06/04 06:44:09;;;;;;;0.60;0.40;;;19.50;99.80;;;;;;5029986;28;21057;-85
2021/06/04 06:46:37;;;;;;;0.60;0.40;;;19.40;99.80;;;;;;5045222;28;21023;-85
2021/06/04 06:49:05;;;;;;;0.60;0.60;;;19.30;99.80;;;;;;5034824;28;20465;-85
2021/06/04 06:51:36;;;;;;;0.60;0.40;;;19.30;99.80;;;;;;5024553;28;20471;-84
2021/06/04 06:54:07;;;;;;;0.60;0.40;;;19.50;99.80;;;;;;5027077;28;20928;-86
2021/06/04 06:56:35;;;;;;;0.60;0.40;;;19.60;99.80;;;;;;5023212;28;21021;-87
2021/06/04 06:59:03;;;;;;;0.60;0.40;;;19.80;99.80;;;;;;5023084;28;20479;-87
2021/06/04 07:01:31;;;;;;;0.60;0.40;;;19.90;99.80;;;;;;5018839;28;20845;-87
2021/06/04 07:04:01;;;;;;;0.60;0.40;;;20.10;99.80;;;;;;5028544;28;20566;-86
2021/06/04 07:06:32;;;;;;;0.60;0.47;;;20.20;99.80;;;;;;5030267;28;20472;-87
2021/06/04 07:09:02;;;;;;;0.60;0.40;;;20.30;99.80;;;;;;5028896;28;20476;-86
2021/06/04 07:11:35;;;;;;;0.60;0.40;;;20.40;99.80;;;;;;5047213;28;20463;-87
2021/06/04 07:14:04;;;;;;;0.60;0.40;;;20.50;99.80;;;;;;5040871;28;20541;-86
2021/06/04 07:16:32;;;;;;;0.60;0.40;;;20.50;99.80;;;;;;5021350;28;20479;-85
2021/06/04 07:19:00;;;;;;;0.60;0.40;;;20.60;99.80;;;;;;5022614;28;20477;-87
2021/06/04 07:21:28;;;;;;;0.60;0.40;;;20.60;99.80;;;;;;5046337;28;20538;-86
2021/06/04 07:23:56;;;;;;;0.60;0.40;;;20.60;99.80;;;;;;5046620;28;20467;-87
2021/06/04 07:26:25;;;;;;;0.60;0.40;;;20.60;99.80;;;;;;5042834;28;20467;-85
2021/06/04 07:28:55;;;;;;;0.60;0.40;;;20.70;99.80;;;;;;5039172;28;20553;-86
2021/06/04 07:31:23;;;;;;;0.60;0.40;;;20.80;99.80;;;;;;5036931;28;20476;-86
2021/06/04 07:33:53;;;;;;;0.60;0.40;;;21.00;99.80;;;;;;5041921;28;20478;-85
2021/06/04 07:36:24;;;;;;;0.60;0.40;;;21.10;99.80;;;;;;5034586;28;20848;-85
2021/06/04 07:38:52;;;;;;;0.60;0.40;;;21.20;99.80;;;;;;5050417;28;20473;-86
2021/06/04 07:41:21;;;;;;;0.60;0.40;;;21.30;99.80;;;;;;5038766;28;20542;-85
2021/06/04 07:43:50;;;;;;;0.60;0.40;;;21.40;99.80;;;;;;5036930;28;20471;-85
2021/06/04 07:46:20;;;;;;;0.60;0.40;;;21.40;99.80;;;;;;5039306;28;20479;-84
2021/06/04 07:48:48;;;;;;;0.60;0.40;;;21.50;99.80;;;;;;5042862;28;20471;-84
2021/06/04 07:51:21;;;;;;;0.60;0.40;;;21.50;99.80;;;;;;5046059;28;20625;-84
2021/06/04 07:53:49;;;;;;;0.60;0.40;;;21.60;99.80;;;;;;5044695;28;21029;-85
2021/06/04 07:56:17;;;;;;;0.60;0.40;;;21.80;99.80;;;;;;5042659;28;20490;-86
2021/06/04 07:58:46;;;;;;;0.60;0.40;;;21.90;99.80;;;;;;5029911;28;20471;-85
2021/06/04 08:01:15;;;;;;;0.60;0.40;;;21.90;99.80;;;;;;5024261;28;20591;-87
2021/06/04 08:03:44;;;;;;;0.60;0.40;;;22.00;99.80;;;;;;5032130;28;20494;-86
2021/06/04 08:06:14;;;;;;;0.60;0.40;;;22.10;99.80;;;;;;5045901;28;20472;-86
2021/06/04 08:08:41;;;;;;;0.60;0.40;;;22.20;99.80;;;;;;5035936;28;20486;-86
2021/06/04 08:11:12;;;;;;;0.60;0.40;;;22.20;99.80;;;;;;5014336;28;20495;-85
2021/06/04 08:13:39;;;;;;;0.60;0.40;;;;;;;;;;5035966;28;21020;-87
2021/06/04 08:16:11;;;;;;;0.60;0.40;;;22.40;99.80;;;;;;5039702;28;20471;-85
2021/06/04 08:18:41;;;;;;;0.60;0.40;;;22.50;99.80;;;;;;5042974;28;20531;-86
2021/06/04 08:21:13;;;;;;;0.60;0.40;;;22.60;99.80;;;;;;5051320;28;21012;-85
2021/06/04 08:23:43;;;;;;;0.60;0.40;;;22.70;99.80;;;;;;5029925;28;21039;-85
2021/06/04 08:26:13;;;;;;;0.60;0.40;;;22.90;99.80;;;;;;5063750;28;20470;-86
2021/06/04 08:28:41;;;;;;;0.60;0.40;;;23.00;99.80;;;;;;5066408;28;20458;-86
2021/06/04 08:31:09;;;;;;;0.60;0.40;;;23.10;99.80;;;;;;5064197;28;20470;-85
2021/06/04 08:33:41;;;;;;;0.60;0.40;;;23.20;99.80;;;;;;5064038;28;20515;-86
2021/06/04 08:36:12;;;;;;;0.60;0.40;;;23.20;99.80;;;;;;5060697;28;20741;-86
2021/06/04 08:38:41;;;;;;;0.60;0.40;;;23.20;99.80;;;;;;5054874;28;20480;-85
2021/06/04 08:41:19;;;;;;;0.60;0.40;;;23.30;99.80;;;;;;5044781;28;20470;-86
2021/06/04 08:44:01;;;;;;;0.60;0.40;;;23.30;99.80;;;;;;5047956;28;20480;-87
2021/06/04 08:46:32;;;;;;;3.90;3.60;;;23.40;99.80;;;;;;5043815;28;20462;-87
2021/06/04 08:49:21;;;;;;;3.37;3.17;;;23.40;99.80;;;;;;5057579;28;20553;-86
2021/06/04 08:52:02;;;;;;;4.13;3.80;;;23.50;99.80;;;;;;5033219;28;20475;-89
2021/06/04 08:54:36;;;;;;;3.60;3.40;;;23.70;99.80;;;;;;5025211;28;20472;-90
2021/06/04 08:57:11;;;;;;;3.80;3.50;;;23.70;99.80;;;;;;5034089;28;20483;-89
2021/06/04 08:59:40;;;;;;;6.83;4.30;;;23.80;99.80;;;;;;5033622;28;20488;-88
2021/06/04 09:02:10;;;;;;;4.03;3.73;;;23.90;99.80;;;;;;5046739;28;20475;-88
2021/06/04 09:04:42;;;;;;;3.70;3.50;;;24.00;99.80;;;;;;5012626;28;21016;-88
2021/06/04 09:07:15;;;;;;;4.20;3.90;;;24.10;99.80;;;;;;5057782;28;20842;-88
2021/06/04 09:09:45;;;;;;;4.10;3.80;;;24.20;99.80;;;;;;5038537;28;20493;-88
2021/06/04 09:12:17;;;;;;;3.80;3.50;;;24.30;99.80;;;;;;5024934;28;20486;-89
2021/06/04 09:14:46;;;;;;;3.70;3.40;;;24.40;99.80;;;;;;5049990;28;20462;-89
2021/06/04 09:17:28;;;;;;;4.20;3.77;;;24.40;99.80;;;;;;5018690;28;20894;-88
2021/06/04 09:20:06;;;;;;;3.10;2.87;;;24.50;99.80;;;;;;5033743;28;20501;-89
2021/06/04 09:22:40;;;;;;;3.70;3.40;;;24.60;99.80;;;;;;5040798;28;20473;-89
2021/06/04 09:25:11;;;;;;;2.67;2.57;;;24.80;99.80;;;;;;5059644;28;20553;-89
2021/06/04 09:27:42;;;;;;;3.80;3.50;;;24.90;99.80;;;;;;5057877;28;20482;-90
2021/06/04 09:30:18;;;;;;;4.00;3.70;;;24.90;99.80;;;;;;5059952;28;21025;-90
2021/06/04 09:33:09;;;;;;;3.60;3.40;;;25.00;99.80;;;;;;5048866;28;20476;-89
2021/06/04 09:35:40;;;;;;;3.30;3.10;;;25.20;99.80;;;;;;5041654;28;20553;-91
2021/06/04 09:38:15;;;;;;;3.87;3.67;;;25.20;99.80;;;;;;5037737;28;20922;-91
2021/06/04 09:40:43;;;;;;;3.60;3.40;;;25.30;99.80;;;;;;5027166;28;20495;-90
2021/06/04 09:43:22;;;;;;;3.67;3.43;;;25.50;99.80;;;;;;5027515;28;21015;-91
2021/06/04 09:45:57;;;;;;;3.27;3.07;;;25.60;99.80;;;;;;5016754;28;20916;-89
2021/06/04 09:48:41;;;;;;;3.70;3.47;;;25.70;98.00;;;;;;5035385;28;20537;-90
2021/06/04 09:51:13;;;;;;;3.40;3.10;;;25.70;97.80;;;;;;5049678;28;20565;-90
2021/06/04 09:53:42;;;;;;;3.70;3.50;;;25.80;99.10;;;;;;5037106;28;20459;-88
2021/06/04 09:56:18;;;;;;;3.63;3.20;;;25.90;98.40;;;;;;5040839;28;21170;-87
2021/06/04 09:58:50;;;;;;;3.20;3.00;;;26.10;96.70;;;;;;5053811;28;20842;-86
2021/06/04 10:01:19;;;;;;;3.30;3.00;;;26.20;97.20;;;;;;5056510;28;20482;-88
2021/06/04 10:03:53;;;;;;;2.90;2.70;;;26.30;94.40;;;;;;5052443;28;20474;-87
2021/06/04 10:06:41;;;;;;;3.20;3.00;;;26.40;95.70;;;;;;5041016;28;20464;-88
2021/06/04 10:09:26;;;;;;;3.50;3.20;;;26.50;94.80;;;;;;5061776;28;20474;-88
2021/06/04 10:12:01;;;;;;;3.30;3.00;;;26.60;93.00;;;;;;5060706;28;20479;-88
2021/06/04 10:14:46;;;;;;;3.07;2.87;;;26.70;92.40;;;;;;5062561;28;20471;-88
2021/06/04 10:17:48;;;;;;;3.07;2.77;;;26.70;90.80;;;;;;5033381;28;20549;-87
2021/06/04 10:20:50;;;;;;;4.20;3.90;;;26.80;95.70;;;;;;5028209;28;21154;-88
2021/06/04 10:23:24;;;;;;;3.90;3.70;;;26.90;93.70;;;;;;5005933;28;20564;-86
2021/06/04 10:25:56;;;;;;;3.53;3.27;;;26.90;92.00;;;;;;5033925;28;20472;-87
2021/06/04 10:28:42;;;;;;;5.80;4.10;;;27.00;92.70;;;;;;5013951;28;20480;-90
2021/06/04 10:31:46;;;;;;;3.50;3.30;;;26.90;88.00;;;;;;5049323;28;20476;-90
2021/06/04 10:34:43;;;;;;;4.33;3.40;;;27.00;90.70;;;;;;5063660;28;20472;-91
2021/06/04 10:37:17;;;;;;;3.30;3.10;;;27.20;91.80;;;;;;5068365;27;20477;-89
2021/06/04 10:39:49;;;;;;;3.00;2.80;;;27.20;89.00;;;;;;5060771;28;20459;-90
2021/06/04 10:42:28;;;;;;;3.40;3.10;;;27.30;89.70;;;;;;5040487;28;20467;-88
2021/06/04 10:45:05;;;;;;;7.60;3.93;;;27.40;88.50;;;;;;5033010;28;20474;-88
2021/06/04 10:47:41;;;;;;;5.93;3.53;;;27.60;88.60;;;;;;5017273;28;20477;-87
2021/06/04 10:50:17;;;;;;;3.50;3.20;;;27.70;86.00;;;;;;5026975;28;21047;-88
2021/06/04 10:52:59;;;;;;;3.10;2.90;;;27.90;88.90;;;;;;5034094;28;20885;-88
2021/06/04 10:55:31;;;;;;;3.70;3.50;;;27.90;86.20;;;;;;5050045;28;20481;-87
2021/06/04 10:58:10;;;;;;;3.40;3.20;;;27.80;88.50;;;;;;5050646;28;20999;-89
2021/06/04 11:00:44;;;;;;;4.03;3.67;;;28.00;89.40;;;;;;5059028;28;20480;-88
2021/06/04 11:03:16;;;;;;;3.70;3.40;;;28.10;89.30;;;;;;5035535;28;20478;-90
2021/06/04 11:05:53;;;;;;;3.43;3.23;;;28.30;84.30;;;;;;5045404;28;20482;-89
2021/06/04 11:08:51;;;;;;;3.30;3.10;;;28.30;86.80;;;;;;5078936;28;20471;-89
2021/06/04 11:11:46;;;;;;;5.63;3.43;;;28.30;84.10;;;;;;5049561;28;20463;-89
2021/06/04 11:14:38;;;;;;;4.03;3.83;;;28.30;85.70;;;;;;5064314;28;20501;-88
2021/06/04 11:17:18;;;;;;;4.40;4.10;;;28.40;86.40;;;;;;5056169;28;21067;-88
2021/06/04 11:19:50;;;;;;;3.70;3.50;;;28.40;88.30;;;;;;5031100;28;20476;-88
2021/06/04 11:22:20;;;;;;;5.43;3.10;;;28.40;87.80;;;;;;5052613;28;20468;-88
2021/06/04 11:24:56;;;;;;;4.77;3.63;;;28.60;88.50;;;;;;5076689;28;20495;-87
2021/06/04 11:27:26;;;;;;;3.70;3.40;;;28.80;89.70;;;;;;5028460;28;21103;-88
2021/06/04 11:29:56;;;;;;;3.90;3.60;;;29.00;89.70;;;;;;5044622;28;20470;-88
2021/06/04 11:32:29;;;;;;;3.87;3.57;;;29.30;89.20;;;;;;5029961;28;21108;-89
2021/06/04 11:35:00;;;;;;;3.67;3.43;;;29.40;87.30;;;;;;5027750;28;20471;-89
2021/06/04 11:37:35;;;;;;;3.63;3.43;;;29.60;87.70;;;;;;5035245;28;20482;-89
2021/06/04 11:40:09;;;;;;;3.30;3.10;;;29.80;86.90;;;;;;5037465;28;20498;-89
2021/06/04 11:42:48;;;;;;;4.53;2.43;;;29.90;86.60;;;;;;5041916;28;20482;-88
2021/06/04 11:45:22;;;;;;;3.20;2.90;;;30.00;85.30;;;;;;5035699;28;20471;-88
2021/06/04 11:47:51;;;;;;;2.97;2.77;;;30.20;84.50;;;;;;5030567;28;20485;-89
2021/06/04 11:50:37;;;;;;;3.67;3.27;;;30.40;84.60;;;;;;5052265;28;20470;-89
2021/06/04 11:53:33;;;;;;;2.90;2.70;;;30.60;84.10;;;;;;5040927;28;21076;-89
2021/06/04 11:56:33;;;;;;;4.30;3.00;;;30.80;83.60;;;;;;5034852;28;20528;-88
2021/06/04 11:59:00;;;;;;;2.93;2.73;;;31.00;82.20;;;;;;5042104;28;20514;-89
2021/06/04 12:01:44;;;;;;;3.03;2.83;;;31.10;81.20;;;;;;5040678;28;20470;-89
2021/06/04 12:04:19;;;;;;;5.60;3.90;;;31.10;83.50;;;;;;5044523;28;20519;-89
2021/06/04 12:07:22;;;;;;;2.70;2.60;;;31.10;83.70;;;;;;5055488;28;20505;-90
2021/06/04 12:09:51;;;;;;;3.70;3.13;;;32.30;78.30;;;;;;5050956;28;20873;-90
2021/06/04 12:12:52;;;;;;;3.20;2.63;;;34.20;69.80;;;;;;5031613;28;20455;-89
2021/06/04 12:15:43;;;;;;;2.70;2.60;;;35.90;64.70;;;;;;5019523;28;20459;-90
2021/06/04 12:18:52;;;;;;;2.90;2.73;;;37.30;66.40;;;;;;5032347;28;20545;-90
2021/06/04 12:21:58;;;;;;;2.43;2.27;;;38.80;60.50;;;;;;5036008;28;20494;-90
2021/06/04 12:25:00;;;;;;;3.10;2.47;;;39.20;57.00;;;;;;5042523;28;20470;-90
2021/06/04 12:28:01;;;;;;;2.20;2.10;;;40.00;57.40;;;;;;5035780;28;20486;-91
2021/06/04 12:30:54;;;;;;;2.40;2.30;;;40.60;57.20;;;;;;5030403;28;20465;-91
2021/06/04 12:33:45;;;;;;;3.33;3.07;;;40.90;55.30;;;;;;5053311;28;20461;-90
2021/06/04 12:36:54;;;;;;;3.13;2.93;;;39.90;54.90;;;;;;5054291;28;20474;-90
2021/06/04 12:39:51;;;;;;;2.50;2.30;;;38.30;59.40;;;;;;5020953;28;20640;-90
2021/06/04 12:42:57;;;;;;;2.43;2.30;;;37.20;61.70;;;;;;5072352;27;20495;-90
2021/06/04 12:45:30;;;;;;;2.10;2.00;;;36.20;63.90;;;;;;4991069;28;20497;-91
2021/06/04 12:48:05;;;;;;;2.37;2.27;;;36.00;63.40;;;;;;5063032;27;20454;-90
2021/06/04 12:50:36;;;;;;;2.13;1.93;;;36.50;62.10;;;;;;5039638;28;20481;-90
2021/06/04 12:53:29;;;;;;;6.60;2.63;;;36.90;61.50;;;;;;5081053;28;20488;-89
2021/06/04 12:56:10;;;;;;;3.00;2.80;;;36.10;61.10;;;;;;5035625;28;20471;-90
2021/06/04 12:58:40;;;;;;;2.70;2.50;;;35.30;64.20;;;;;;5059620;28;20482;-89
2021/06/04 13:01:12;;;;;;;2.90;2.70;;;34.60;67.20;;;;;;5056843;28;20477;-90
2021/06/04 13:03:42;;;;;;;2.70;2.60;;;35.10;67.60;;;;;;5058307;28;21025;-89
2021/06/04 13:06:18;;;;;;;4.23;3.90;;;35.40;67.50;;;;;;5043489;28;20478;-90
2021/06/04 13:08:48;;;;;;;4.50;4.10;;;34.30;70.00;;;;;;5041530;28;20707;-89
2021/06/04 13:45:24;;;;;;;7.17;6.30;;;28.00;90.90;;;;;;6313085;22;156382;-85
2021/06/04 13:48:07;;;;;;;5.20;4.70;;;28.10;88.90;;;;;;6148522;23;20439;-86
2021/06/04 13:50:45;;;;;;;5.70;4.97;;;28.20;90.40;;;;;;6182370;23;20443;-87
2021/06/04 13:53:44;;;;;;;6.27;5.67;;;28.40;90.00;;;;;;6146891;23;20462;-87
2021/06/04 13:56:35;;;;;;;5.10;4.70;;;28.70;88.10;;;;;;6158803;23;20438;-88